sensor_id;sensor_type;location;lat;lon;timestamp;P1;durP1;ratioP1;P2;durP2;ratioP2
3847;SDS011;1939;48.720;9.166;2024-02-14T00:01:15;8.40;;;3.57;;
3847;SDS011;1939;48.720;9.166;2024-02-14T00:03:40;6.13;;;3.90;;
3847;SDS011;1939;48.720;9.166;2024-02-14T00:06:06;8.50;;;5.60;;
3847;SDS011;1939;48.720;9.166;2024-02-14T00:08:31;9.50;;;5.63;;
3847;SDS011;1939;48.720;9.166;2024-02-14T00:10:56;8.53;;;4.90;;
3847;SDS011;1939;48.720;9.166;2024-02-14T00:13:22;11.20;;;5.23;;
3847;SDS011;1939;48.720;9.166;2024-02-14T00:15:47;14.57;;;4.90;;
3847;SDS011;1939;48.720;9.166;2024-02-14T00:18:12;6.67;;;4.53;;
3847;SDS011;1939;48.720;9.166;2024-02-14T00:20:37;8.03;;;4.77;;
3847;SDS011;1939;48.720;9.166;2024-02-14T00:23:04;10.23;;;5.20;;
3847;SDS011;1939;48.720;9.166;2024-02-14T00:25:29;10.10;;;4.30;;
3847;SDS011;1939;48.720;9.166;2024-02-14T00:27:55;8.03;;;4.70;;
3847;SDS011;1939;48.720;9.166;2024-02-14T00:30:20;5.27;;;4.30;;
3847;SDS011;1939;48.720;9.166;2024-02-14T00:32:48;13.50;;;5.87;;
3847;SDS011;1939;48.720;9.166;2024-02-14T00:35:13;5.57;;;4.10;;
3847;SDS011;1939;48.720;9.166;2024-02-14T00:37:38;8.37;;;4.10;;
3847;SDS011;1939;48.720;9.166;2024-02-14T00:40:04;9.33;;;4.03;;
3847;SDS011;1939;48.720;9.166;2024-02-14T00:42:29;11.60;;;3.93;;
3847;SDS011;1939;48.720;9.166;2024-02-14T00:44:54;8.23;;;4.40;;
3847;SDS011;1939;48.720;9.166;2024-02-14T00:47:19;7.00;;;3.80;;
3847;SDS011;1939;48.720;9.166;2024-02-14T00:49:45;13.10;;;4.60;;
3847;SDS011;1939;48.720;9.166;2024-02-14T00:52:10;9.80;;;4.10;;
3847;SDS011;1939;48.720;9.166;2024-02-14T00:54:35;5.67;;;3.40;;
3847;SDS011;1939;48.720;9.166;2024-02-14T00:57:00;5.10;;;3.80;;
3847;SDS011;1939;48.720;9.166;2024-02-14T00:59:26;6.10;;;3.37;;
3847;SDS011;1939;48.720;9.166;2024-02-14T01:01:51;10.23;;;3.50;;
3847;SDS011;1939;48.720;9.166;2024-02-14T01:04:16;6.03;;;4.07;;
3847;SDS011;1939;48.720;9.166;2024-02-14T01:06:42;7.70;;;3.17;;
3847;SDS011;1939;48.720;9.166;2024-02-14T01:09:07;6.00;;;3.37;;
3847;SDS011;1939;48.720;9.166;2024-02-14T01:11:33;7.50;;;4.43;;
3847;SDS011;1939;48.720;9.166;2024-02-14T01:13:58;7.90;;;3.70;;
3847;SDS011;1939;48.720;9.166;2024-02-14T01:16:24;5.47;;;4.00;;
3847;SDS011;1939;48.720;9.166;2024-02-14T01:18:49;4.13;;;3.30;;
3847;SDS011;1939;48.720;9.166;2024-02-14T01:21:15;6.10;;;3.60;;
3847;SDS011;1939;48.720;9.166;2024-02-14T01:23:40;4.67;;;3.67;;
3847;SDS011;1939;48.720;9.166;2024-02-14T01:26:05;6.60;;;3.47;;
3847;SDS011;1939;48.720;9.166;2024-02-14T01:28:30;7.20;;;3.70;;
3847;SDS011;1939;48.720;9.166;2024-02-14T01:30:55;12.23;;;3.77;;
3847;SDS011;1939;48.720;9.166;2024-02-14T01:33:22;3.83;;;3.10;;
3847;SDS011;1939;48.720;9.166;2024-02-14T01:35:47;7.77;;;3.60;;
3847;SDS011;1939;48.720;9.166;2024-02-14T01:38:12;7.77;;;3.70;;
3847;SDS011;1939;48.720;9.166;2024-02-14T01:40:38;5.20;;;3.30;;
3847;SDS011;1939;48.720;9.166;2024-02-14T01:43:03;8.53;;;2.90;;
3847;SDS011;1939;48.720;9.166;2024-02-14T01:45:28;8.63;;;3.80;;
3847;SDS011;1939;48.720;9.166;2024-02-14T01:47:54;5.43;;;3.73;;
3847;SDS011;1939;48.720;9.166;2024-02-14T01:50:20;5.53;;;4.10;;
3847;SDS011;1939;48.720;9.166;2024-02-14T01:52:53;5.30;;;3.50;;
3847;SDS011;1939;48.720;9.166;2024-02-14T01:55:19;4.17;;;2.93;;
3847;SDS011;1939;48.720;9.166;2024-02-14T01:57:44;5.07;;;3.33;;
3847;SDS011;1939;48.720;9.166;2024-02-14T02:00:10;9.37;;;3.90;;
3847;SDS011;1939;48.720;9.166;2024-02-14T02:02:43;10.03;;;3.67;;
3847;SDS011;1939;48.720;9.166;2024-02-14T02:05:08;7.40;;;3.37;;
3847;SDS011;1939;48.720;9.166;2024-02-14T02:07:33;8.50;;;3.77;;
3847;SDS011;1939;48.720;9.166;2024-02-14T02:09:59;5.60;;;3.83;;
3847;SDS011;1939;48.720;9.166;2024-02-14T02:12:24;4.57;;;3.50;;
3847;SDS011;1939;48.720;9.166;2024-02-14T02:14:52;4.10;;;3.10;;
3847;SDS011;1939;48.720;9.166;2024-02-14T02:17:17;8.33;;;3.40;;
3847;SDS011;1939;48.720;9.166;2024-02-14T02:19:43;4.70;;;3.57;;
3847;SDS011;1939;48.720;9.166;2024-02-14T02:22:08;4.93;;;3.47;;
3847;SDS011;1939;48.720;9.166;2024-02-14T02:24:34;6.60;;;3.70;;
3847;SDS011;1939;48.720;9.166;2024-02-14T02:27:00;5.60;;;5.00;;
3847;SDS011;1939;48.720;9.166;2024-02-14T02:29:25;8.60;;;3.33;;
3847;SDS011;1939;48.720;9.166;2024-02-14T02:31:50;7.47;;;3.83;;
3847;SDS011;1939;48.720;9.166;2024-02-14T02:34:17;6.60;;;2.90;;
3847;SDS011;1939;48.720;9.166;2024-02-14T02:36:43;7.20;;;3.50;;
3847;SDS011;1939;48.720;9.166;2024-02-14T02:39:08;7.20;;;3.47;;
3847;SDS011;1939;48.720;9.166;2024-02-14T02:41:34;12.97;;;4.43;;
3847;SDS011;1939;48.720;9.166;2024-02-14T02:43:59;7.10;;;3.33;;
3847;SDS011;1939;48.720;9.166;2024-02-14T02:46:26;5.00;;;2.73;;
3847;SDS011;1939;48.720;9.166;2024-02-14T02:48:52;8.17;;;4.50;;
3847;SDS011;1939;48.720;9.166;2024-02-14T02:51:19;7.00;;;4.10;;
3847;SDS011;1939;48.720;9.166;2024-02-14T02:53:45;6.33;;;3.40;;
3847;SDS011;1939;48.720;9.166;2024-02-14T02:56:10;4.80;;;3.37;;
3847;SDS011;1939;48.720;9.166;2024-02-14T02:58:37;7.13;;;3.20;;
3847;SDS011;1939;48.720;9.166;2024-02-14T03:01:02;7.73;;;3.90;;
3847;SDS011;1939;48.720;9.166;2024-02-14T03:03:29;9.00;;;3.90;;
3847;SDS011;1939;48.720;9.166;2024-02-14T03:05:58;7.57;;;3.43;;
3847;SDS011;1939;48.720;9.166;2024-02-14T03:08:24;9.33;;;4.20;;
3847;SDS011;1939;48.720;9.166;2024-02-14T03:10:51;3.90;;;2.60;;
3847;SDS011;1939;48.720;9.166;2024-02-14T03:13:16;4.90;;;3.90;;
3847;SDS011;1939;48.720;9.166;2024-02-14T03:15:42;5.93;;;3.90;;
3847;SDS011;1939;48.720;9.166;2024-02-14T03:18:08;7.50;;;4.00;;
3847;SDS011;1939;48.720;9.166;2024-02-14T03:20:35;6.73;;;3.70;;
3847;SDS011;1939;48.720;9.166;2024-02-14T03:23:00;4.43;;;3.37;;
3847;SDS011;1939;48.720;9.166;2024-02-14T03:25:26;6.53;;;4.33;;
3847;SDS011;1939;48.720;9.166;2024-02-14T03:27:51;6.80;;;2.80;;
3847;SDS011;1939;48.720;9.166;2024-02-14T03:30:18;4.80;;;3.40;;
3847;SDS011;1939;48.720;9.166;2024-02-14T03:32:43;5.47;;;2.43;;
3847;SDS011;1939;48.720;9.166;2024-02-14T03:35:09;4.70;;;3.10;;
3847;SDS011;1939;48.720;9.166;2024-02-14T03:37:36;7.87;;;2.80;;
3847;SDS011;1939;48.720;9.166;2024-02-14T03:40:02;5.03;;;2.97;;
3847;SDS011;1939;48.720;9.166;2024-02-14T03:42:29;4.40;;;3.03;;
3847;SDS011;1939;48.720;9.166;2024-02-14T03:44:54;4.60;;;3.13;;
3847;SDS011;1939;48.720;9.166;2024-02-14T03:47:27;4.10;;;2.90;;
3847;SDS011;1939;48.720;9.166;2024-02-14T03:49:52;4.27;;;3.00;;
3847;SDS011;1939;48.720;9.166;2024-02-14T03:52:18;5.70;;;2.97;;
3847;SDS011;1939;48.720;9.166;2024-02-14T03:54:43;5.77;;;2.90;;
3847;SDS011;1939;48.720;9.166;2024-02-14T03:57:09;7.00;;;3.00;;
3847;SDS011;1939;48.720;9.166;2024-02-14T03:59:37;6.40;;;3.10;;
3847;SDS011;1939;48.720;9.166;2024-02-14T04:02:04;4.97;;;3.87;;
3847;SDS011;1939;48.720;9.166;2024-02-14T04:04:29;7.67;;;3.17;;
3847;SDS011;1939;48.720;9.166;2024-02-14T04:06:54;7.20;;;3.20;;
3847;SDS011;1939;48.720;9.166;2024-02-14T04:09:19;5.80;;;4.17;;
3847;SDS011;1939;48.720;9.166;2024-02-14T04:11:45;5.70;;;3.23;;
3847;SDS011;1939;48.720;9.166;2024-02-14T04:14:10;6.87;;;3.53;;
3847;SDS011;1939;48.720;9.166;2024-02-14T04:16:35;3.70;;;2.63;;
3847;SDS011;1939;48.720;9.166;2024-02-14T04:19:01;3.73;;;2.80;;
3847;SDS011;1939;48.720;9.166;2024-02-14T04:21:27;3.23;;;2.60;;
3847;SDS011;1939;48.720;9.166;2024-02-14T04:23:52;5.60;;;3.07;;
3847;SDS011;1939;48.720;9.166;2024-02-14T04:26:21;4.97;;;2.63;;
3847;SDS011;1939;48.720;9.166;2024-02-14T04:28:46;3.37;;;2.27;;
3847;SDS011;1939;48.720;9.166;2024-02-14T04:31:11;8.07;;;2.90;;
3847;SDS011;1939;48.720;9.166;2024-02-14T04:33:36;11.93;;;3.33;;
3847;SDS011;1939;48.720;9.166;2024-02-14T04:36:02;4.97;;;2.87;;
3847;SDS011;1939;48.720;9.166;2024-02-14T04:38:27;11.33;;;3.23;;
3847;SDS011;1939;48.720;9.166;2024-02-14T04:40:54;4.50;;;3.33;;
3847;SDS011;1939;48.720;9.166;2024-02-14T04:43:21;5.73;;;4.70;;
3847;SDS011;1939;48.720;9.166;2024-02-14T04:45:46;4.50;;;3.23;;
3847;SDS011;1939;48.720;9.166;2024-02-14T04:48:13;10.70;;;3.47;;
3847;SDS011;1939;48.720;9.166;2024-02-14T04:50:38;8.77;;;3.70;;
3847;SDS011;1939;48.720;9.166;2024-02-14T04:53:03;6.93;;;3.60;;
3847;SDS011;1939;48.720;9.166;2024-02-14T04:55:28;8.07;;;3.53;;
3847;SDS011;1939;48.720;9.166;2024-02-14T04:57:54;10.17;;;3.97;;
3847;SDS011;1939;48.720;9.166;2024-02-14T05:00:19;6.80;;;2.90;;
3847;SDS011;1939;48.720;9.166;2024-02-14T05:02:45;4.60;;;3.07;;
3847;SDS011;1939;48.720;9.166;2024-02-14T05:05:10;15.10;;;4.53;;
3847;SDS011;1939;48.720;9.166;2024-02-14T05:07:35;7.60;;;3.47;;
3847;SDS011;1939;48.720;9.166;2024-02-14T05:10:00;4.00;;;2.73;;
3847;SDS011;1939;48.720;9.166;2024-02-14T05:12:26;10.73;;;2.93;;
3847;SDS011;1939;48.720;9.166;2024-02-14T05:14:51;10.37;;;4.57;;
3847;SDS011;1939;48.720;9.166;2024-02-14T05:17:16;12.23;;;4.80;;
3847;SDS011;1939;48.720;9.166;2024-02-14T05:19:42;16.37;;;3.37;;
3847;SDS011;1939;48.720;9.166;2024-02-14T05:22:07;7.70;;;3.20;;
3847;SDS011;1939;48.720;9.166;2024-02-14T05:24:33;6.00;;;2.90;;
3847;SDS011;1939;48.720;9.166;2024-02-14T05:26:59;5.53;;;3.20;;
3847;SDS011;1939;48.720;9.166;2024-02-14T05:29:24;5.80;;;3.23;;
3847;SDS011;1939;48.720;9.166;2024-02-14T05:31:50;7.40;;;3.63;;
3847;SDS011;1939;48.720;9.166;2024-02-14T05:34:17;3.07;;;2.23;;
3847;SDS011;1939;48.720;9.166;2024-02-14T05:36:42;5.00;;;2.27;;
3847;SDS011;1939;48.720;9.166;2024-02-14T05:39:07;7.37;;;2.57;;
3847;SDS011;1939;48.720;9.166;2024-02-14T05:41:33;7.37;;;3.17;;
3847;SDS011;1939;48.720;9.166;2024-02-14T05:43:58;5.60;;;2.80;;
3847;SDS011;1939;48.720;9.166;2024-02-14T05:46:23;4.03;;;2.90;;
3847;SDS011;1939;48.720;9.166;2024-02-14T05:48:49;3.93;;;2.90;;
3847;SDS011;1939;48.720;9.166;2024-02-14T05:51:14;3.57;;;2.63;;
3847;SDS011;1939;48.720;9.166;2024-02-14T05:53:39;7.93;;;2.70;;
3847;SDS011;1939;48.720;9.166;2024-02-14T05:56:05;10.87;;;2.77;;
3847;SDS011;1939;48.720;9.166;2024-02-14T05:58:30;4.90;;;3.50;;
3847;SDS011;1939;48.720;9.166;2024-02-14T06:00:55;13.10;;;3.23;;
3847;SDS011;1939;48.720;9.166;2024-02-14T06:03:21;7.00;;;3.30;;
3847;SDS011;1939;48.720;9.166;2024-02-14T06:05:46;6.67;;;3.50;;
3847;SDS011;1939;48.720;9.166;2024-02-14T06:08:11;4.70;;;2.93;;
3847;SDS011;1939;48.720;9.166;2024-02-14T06:10:37;6.43;;;2.70;;
3847;SDS011;1939;48.720;9.166;2024-02-14T06:13:04;7.30;;;3.30;;
3847;SDS011;1939;48.720;9.166;2024-02-14T06:15:29;6.73;;;3.90;;
3847;SDS011;1939;48.720;9.166;2024-02-14T06:17:54;5.00;;;2.33;;
3847;SDS011;1939;48.720;9.166;2024-02-14T06:20:19;7.40;;;2.77;;
3847;SDS011;1939;48.720;9.166;2024-02-14T06:22:45;4.87;;;2.70;;
3847;SDS011;1939;48.720;9.166;2024-02-14T06:25:10;9.53;;;2.77;;
3847;SDS011;1939;48.720;9.166;2024-02-14T06:27:35;22.33;;;3.67;;
3847;SDS011;1939;48.720;9.166;2024-02-14T06:30:00;4.80;;;2.83;;
3847;SDS011;1939;48.720;9.166;2024-02-14T06:32:26;6.63;;;2.73;;
3847;SDS011;1939;48.720;9.166;2024-02-14T06:34:51;3.07;;;2.53;;
3847;SDS011;1939;48.720;9.166;2024-02-14T06:37:16;6.80;;;2.90;;
3847;SDS011;1939;48.720;9.166;2024-02-14T06:39:41;5.63;;;2.50;;
3847;SDS011;1939;48.720;9.166;2024-02-14T06:42:07;7.57;;;2.87;;
3847;SDS011;1939;48.720;9.166;2024-02-14T06:44:32;3.03;;;1.93;;
3847;SDS011;1939;48.720;9.166;2024-02-14T06:46:57;5.00;;;2.43;;
3847;SDS011;1939;48.720;9.166;2024-02-14T06:49:22;5.47;;;2.60;;
3847;SDS011;1939;48.720;9.166;2024-02-14T06:51:48;7.63;;;2.80;;
3847;SDS011;1939;48.720;9.166;2024-02-14T06:54:13;4.40;;;2.90;;
3847;SDS011;1939;48.720;9.166;2024-02-14T06:56:38;5.73;;;2.20;;
3847;SDS011;1939;48.720;9.166;2024-02-14T06:59:03;2.97;;;2.10;;
3847;SDS011;1939;48.720;9.166;2024-02-14T07:01:29;11.63;;;2.50;;
3847;SDS011;1939;48.720;9.166;2024-02-14T07:03:54;9.70;;;3.33;;
3847;SDS011;1939;48.720;9.166;2024-02-14T07:06:20;5.80;;;2.50;;
3847;SDS011;1939;48.720;9.166;2024-02-14T07:08:45;6.17;;;2.30;;
3847;SDS011;1939;48.720;9.166;2024-02-14T07:11:10;4.20;;;1.70;;
3847;SDS011;1939;48.720;9.166;2024-02-14T07:13:36;5.53;;;2.50;;
3847;SDS011;1939;48.720;9.166;2024-02-14T07:16:01;6.17;;;2.60;;
3847;SDS011;1939;48.720;9.166;2024-02-14T07:18:26;8.13;;;3.83;;
3847;SDS011;1939;48.720;9.166;2024-02-14T07:20:52;4.03;;;2.20;;
3847;SDS011;1939;48.720;9.166;2024-02-14T07:23:18;2.60;;;1.90;;
3847;SDS011;1939;48.720;9.166;2024-02-14T07:25:43;7.60;;;2.20;;
3847;SDS011;1939;48.720;9.166;2024-02-14T07:28:09;2.70;;;2.30;;
3847;SDS011;1939;48.720;9.166;2024-02-14T07:30:35;6.23;;;2.27;;
3847;SDS011;1939;48.720;9.166;2024-02-14T07:33:00;2.70;;;1.50;;
3847;SDS011;1939;48.720;9.166;2024-02-14T07:35:26;4.53;;;2.20;;
3847;SDS011;1939;48.720;9.166;2024-02-14T07:37:51;5.77;;;2.27;;
3847;SDS011;1939;48.720;9.166;2024-02-14T07:40:17;6.47;;;2.40;;
3847;SDS011;1939;48.720;9.166;2024-02-14T07:42:42;1.93;;;1.70;;
3847;SDS011;1939;48.720;9.166;2024-02-14T07:45:07;3.40;;;2.00;;
3847;SDS011;1939;48.720;9.166;2024-02-14T07:47:32;2.87;;;1.77;;
3847;SDS011;1939;48.720;9.166;2024-02-14T07:49:58;3.83;;;1.80;;
3847;SDS011;1939;48.720;9.166;2024-02-14T07:52:23;3.80;;;1.73;;
3847;SDS011;1939;48.720;9.166;2024-02-14T07:54:55;3.57;;;1.83;;
3847;SDS011;1939;48.720;9.166;2024-02-14T07:57:23;3.90;;;2.10;;
3847;SDS011;1939;48.720;9.166;2024-02-14T07:59:50;9.60;;;2.50;;
3847;SDS011;1939;48.720;9.166;2024-02-14T08:02:15;3.00;;;2.00;;
3847;SDS011;1939;48.720;9.166;2024-02-14T08:04:40;10.23;;;1.70;;
3847;SDS011;1939;48.720;9.166;2024-02-14T08:07:05;3.93;;;2.00;;
3847;SDS011;1939;48.720;9.166;2024-02-14T08:09:30;2.50;;;1.47;;
3847;SDS011;1939;48.720;9.166;2024-02-14T08:11:56;2.90;;;1.60;;
3847;SDS011;1939;48.720;9.166;2024-02-14T08:14:21;3.73;;;1.33;;
3847;SDS011;1939;48.720;9.166;2024-02-14T08:16:46;2.73;;;1.20;;
3847;SDS011;1939;48.720;9.166;2024-02-14T08:19:12;2.93;;;1.30;;
3847;SDS011;1939;48.720;9.166;2024-02-14T08:21:37;1.70;;;1.30;;
3847;SDS011;1939;48.720;9.166;2024-02-14T08:24:02;3.97;;;1.40;;
3847;SDS011;1939;48.720;9.166;2024-02-14T08:26:28;16.63;;;1.67;;
3847;SDS011;1939;48.720;9.166;2024-02-14T08:28:53;1.87;;;1.10;;
3847;SDS011;1939;48.720;9.166;2024-02-14T08:31:19;10.27;;;1.90;;
3847;SDS011;1939;48.720;9.166;2024-02-14T08:33:44;3.50;;;1.63;;
3847;SDS011;1939;48.720;9.166;2024-02-14T08:36:10;4.00;;;1.30;;
3847;SDS011;1939;48.720;9.166;2024-02-14T08:38:35;1.80;;;1.20;;
3847;SDS011;1939;48.720;9.166;2024-02-14T08:41:01;1.47;;;1.37;;
3847;SDS011;1939;48.720;9.166;2024-02-14T08:43:26;2.40;;;1.33;;
3847;SDS011;1939;48.720;9.166;2024-02-14T08:45:53;5.73;;;1.70;;
3847;SDS011;1939;48.720;9.166;2024-02-14T08:48:18;3.27;;;1.47;;
3847;SDS011;1939;48.720;9.166;2024-02-14T08:50:44;5.63;;;1.50;;
3847;SDS011;1939;48.720;9.166;2024-02-14T08:53:10;2.80;;;1.43;;
3847;SDS011;1939;48.720;9.166;2024-02-14T08:55:37;5.40;;;1.57;;
3847;SDS011;1939;48.720;9.166;2024-02-14T08:58:03;5.00;;;1.70;;
3847;SDS011;1939;48.720;9.166;2024-02-14T09:00:29;4.63;;;1.03;;
3847;SDS011;1939;48.720;9.166;2024-02-14T09:02:55;7.70;;;1.60;;
3847;SDS011;1939;48.720;9.166;2024-02-14T09:05:21;3.93;;;1.60;;
3847;SDS011;1939;48.720;9.166;2024-02-14T09:07:47;1.80;;;1.30;;
3847;SDS011;1939;48.720;9.166;2024-02-14T09:10:12;4.03;;;1.50;;
3847;SDS011;1939;48.720;9.166;2024-02-14T09:12:40;2.20;;;1.40;;
3847;SDS011;1939;48.720;9.166;2024-02-14T09:15:09;2.87;;;1.50;;
3847;SDS011;1939;48.720;9.166;2024-02-14T09:17:34;8.33;;;1.80;;
3847;SDS011;1939;48.720;9.166;2024-02-14T09:19:59;3.33;;;1.33;;
3847;SDS011;1939;48.720;9.166;2024-02-14T09:22:24;3.70;;;1.30;;
3847;SDS011;1939;48.720;9.166;2024-02-14T09:24:50;2.20;;;1.27;;
3847;SDS011;1939;48.720;9.166;2024-02-14T09:27:15;6.40;;;1.37;;
3847;SDS011;1939;48.720;9.166;2024-02-14T09:29:40;4.93;;;1.30;;
3847;SDS011;1939;48.720;9.166;2024-02-14T09:32:05;2.57;;;1.30;;
3847;SDS011;1939;48.720;9.166;2024-02-14T09:34:31;9.80;;;1.60;;
3847;SDS011;1939;48.720;9.166;2024-02-14T09:36:56;15.37;;;1.27;;
3847;SDS011;1939;48.720;9.166;2024-02-14T09:39:23;6.00;;;1.80;;
3847;SDS011;1939;48.720;9.166;2024-02-14T09:41:52;4.80;;;1.37;;
3847;SDS011;1939;48.720;9.166;2024-02-14T09:44:20;2.30;;;1.33;;
3847;SDS011;1939;48.720;9.166;2024-02-14T09:46:46;2.73;;;1.40;;
3847;SDS011;1939;48.720;9.166;2024-02-14T09:49:11;2.03;;;1.20;;
3847;SDS011;1939;48.720;9.166;2024-02-14T09:51:38;5.23;;;1.13;;
3847;SDS011;1939;48.720;9.166;2024-02-14T09:54:04;1.97;;;1.20;;
3847;SDS011;1939;48.720;9.166;2024-02-14T09:56:29;1.80;;;1.30;;
3847;SDS011;1939;48.720;9.166;2024-02-14T09:58:56;12.93;;;1.30;;
3847;SDS011;1939;48.720;9.166;2024-02-14T10:01:24;5.90;;;1.60;;
3847;SDS011;1939;48.720;9.166;2024-02-14T10:03:50;2.50;;;1.60;;
3847;SDS011;1939;48.720;9.166;2024-02-14T10:06:17;2.53;;;1.50;;
3847;SDS011;1939;48.720;9.166;2024-02-14T10:08:42;2.50;;;1.10;;
3847;SDS011;1939;48.720;9.166;2024-02-14T10:11:07;2.83;;;1.30;;
3847;SDS011;1939;48.720;9.166;2024-02-14T10:13:33;2.00;;;1.33;;
3847;SDS011;1939;48.720;9.166;2024-02-14T10:15:59;2.37;;;1.40;;
3847;SDS011;1939;48.720;9.166;2024-02-14T10:18:25;2.73;;;1.20;;
3847;SDS011;1939;48.720;9.166;2024-02-14T10:20:57;11.13;;;1.80;;
3847;SDS011;1939;48.720;9.166;2024-02-14T10:23:23;4.43;;;1.37;;
3847;SDS011;1939;48.720;9.166;2024-02-14T10:25:49;2.87;;;1.40;;
3847;SDS011;1939;48.720;9.166;2024-02-14T10:28:15;6.57;;;1.17;;
3847;SDS011;1939;48.720;9.166;2024-02-14T10:30:41;6.73;;;1.60;;
3847;SDS011;1939;48.720;9.166;2024-02-14T10:33:10;7.77;;;1.60;;
3847;SDS011;1939;48.720;9.166;2024-02-14T10:35:35;7.63;;;1.30;;
3847;SDS011;1939;48.720;9.166;2024-02-14T10:38:02;2.03;;;1.07;;
3847;SDS011;1939;48.720;9.166;2024-02-14T10:40:27;5.57;;;1.17;;
3847;SDS011;1939;48.720;9.166;2024-02-14T10:42:53;1.17;;;1.07;;
3847;SDS011;1939;48.720;9.166;2024-02-14T10:45:19;3.90;;;1.00;;
3847;SDS011;1939;48.720;9.166;2024-02-14T10:47:45;2.80;;;1.57;;
3847;SDS011;1939;48.720;9.166;2024-02-14T10:50:12;2.40;;;1.40;;
3847;SDS011;1939;48.720;9.166;2024-02-14T10:52:38;1.67;;;0.70;;
3847;SDS011;1939;48.720;9.166;2024-02-14T10:55:05;2.93;;;1.00;;
3847;SDS011;1939;48.720;9.166;2024-02-14T10:57:31;1.73;;;1.00;;
3847;SDS011;1939;48.720;9.166;2024-02-14T11:00:06;1.90;;;1.23;;
3847;SDS011;1939;48.720;9.166;2024-02-14T11:02:32;1.80;;;1.33;;
3847;SDS011;1939;48.720;9.166;2024-02-14T11:04:58;1.30;;;0.93;;
3847;SDS011;1939;48.720;9.166;2024-02-14T11:07:23;1.83;;;1.03;;
3847;SDS011;1939;48.720;9.166;2024-02-14T11:09:59;2.70;;;1.03;;
3847;SDS011;1939;48.720;9.166;2024-02-14T11:12:25;2.70;;;1.30;;
3847;SDS011;1939;48.720;9.166;2024-02-14T11:14:50;1.43;;;0.80;;
3847;SDS011;1939;48.720;9.166;2024-02-14T11:17:18;5.37;;;1.90;;
3847;SDS011;1939;48.720;9.166;2024-02-14T11:19:49;1.67;;;1.10;;
3847;SDS011;1939;48.720;9.166;2024-02-14T11:22:19;1.43;;;1.33;;
3847;SDS011;1939;48.720;9.166;2024-02-14T11:24:48;5.23;;;1.00;;
3847;SDS011;1939;48.720;9.166;2024-02-14T11:27:14;8.20;;;1.73;;
3847;SDS011;1939;48.720;9.166;2024-02-14T11:29:39;1.67;;;1.10;;
3847;SDS011;1939;48.720;9.166;2024-02-14T11:32:06;2.30;;;1.00;;
3847;SDS011;1939;48.720;9.166;2024-02-14T11:34:33;1.10;;;0.70;;
3847;SDS011;1939;48.720;9.166;2024-02-14T11:36:59;1.20;;;1.10;;
3847;SDS011;1939;48.720;9.166;2024-02-14T11:39:27;1.67;;;0.60;;
3847;SDS011;1939;48.720;9.166;2024-02-14T11:41:52;1.63;;;0.77;;
3847;SDS011;1939;48.720;9.166;2024-02-14T11:44:20;2.03;;;0.63;;
3847;SDS011;1939;48.720;9.166;2024-02-14T11:46:47;3.83;;;1.23;;
3847;SDS011;1939;48.720;9.166;2024-02-14T11:49:12;2.80;;;1.30;;
3847;SDS011;1939;48.720;9.166;2024-02-14T11:51:37;1.50;;;0.63;;
3847;SDS011;1939;48.720;9.166;2024-02-14T11:54:03;3.37;;;1.10;;
3847;SDS011;1939;48.720;9.166;2024-02-14T11:56:35;0.80;;;0.60;;
3847;SDS011;1939;48.720;9.166;2024-02-14T11:59:01;1.10;;;0.80;;
3847;SDS011;1939;48.720;9.166;2024-02-14T12:01:33;5.77;;;0.90;;
3847;SDS011;1939;48.720;9.166;2024-02-14T12:03:59;1.33;;;0.87;;
3847;SDS011;1939;48.720;9.166;2024-02-14T12:06:25;5.17;;;1.17;;
3847;SDS011;1939;48.720;9.166;2024-02-14T12:08:51;2.83;;;1.83;;
3847;SDS011;1939;48.720;9.166;2024-02-14T12:11:17;19.27;;;1.00;;
3847;SDS011;1939;48.720;9.166;2024-02-14T12:13:42;6.00;;;1.27;;
3847;SDS011;1939;48.720;9.166;2024-02-14T12:16:08;0.97;;;0.67;;
3847;SDS011;1939;48.720;9.166;2024-02-14T12:18:35;1.53;;;0.87;;
3847;SDS011;1939;48.720;9.166;2024-02-14T12:21:04;1.13;;;0.70;;
3847;SDS011;1939;48.720;9.166;2024-02-14T12:23:32;0.90;;;0.50;;
3847;SDS011;1939;48.720;9.166;2024-02-14T12:26:00;1.33;;;0.53;;
3847;SDS011;1939;48.720;9.166;2024-02-14T12:28:27;1.53;;;0.60;;
3847;SDS011;1939;48.720;9.166;2024-02-14T12:30:53;5.17;;;0.80;;
3847;SDS011;1939;48.720;9.166;2024-02-14T12:33:21;1.43;;;0.80;;
3847;SDS011;1939;48.720;9.166;2024-02-14T12:35:47;1.30;;;0.70;;
3847;SDS011;1939;48.720;9.166;2024-02-14T12:38:14;0.83;;;0.67;;
3847;SDS011;1939;48.720;9.166;2024-02-14T12:40:39;0.70;;;0.50;;
3847;SDS011;1939;48.720;9.166;2024-02-14T12:43:09;0.80;;;0.40;;
3847;SDS011;1939;48.720;9.166;2024-02-14T12:45:35;1.63;;;0.90;;
3847;SDS011;1939;48.720;9.166;2024-02-14T12:48:01;1.17;;;0.60;;
3847;SDS011;1939;48.720;9.166;2024-02-14T12:50:26;2.67;;;1.17;;
3847;SDS011;1939;48.720;9.166;2024-02-14T12:52:51;3.63;;;0.40;;
3847;SDS011;1939;48.720;9.166;2024-02-14T12:55:16;2.07;;;0.80;;
3847;SDS011;1939;48.720;9.166;2024-02-14T12:57:43;0.80;;;0.50;;
3847;SDS011;1939;48.720;9.166;2024-02-14T13:00:08;1.87;;;0.90;;
3847;SDS011;1939;48.720;9.166;2024-02-14T13:02:34;1.33;;;0.67;;
3847;SDS011;1939;48.720;9.166;2024-02-14T13:05:00;0.63;;;0.47;;
3847;SDS011;1939;48.720;9.166;2024-02-14T13:07:26;0.80;;;0.50;;
3847;SDS011;1939;48.720;9.166;2024-02-14T13:09:52;1.00;;;0.50;;
3847;SDS011;1939;48.720;9.166;2024-02-14T13:12:17;8.13;;;1.70;;
3847;SDS011;1939;48.720;9.166;2024-02-14T13:14:42;2.17;;;1.00;;
3847;SDS011;1939;48.720;9.166;2024-02-14T13:17:09;0.70;;;0.50;;
3847;SDS011;1939;48.720;9.166;2024-02-14T13:19:35;3.43;;;0.80;;
3847;SDS011;1939;48.720;9.166;2024-02-14T13:22:00;1.53;;;0.97;;
3847;SDS011;1939;48.720;9.166;2024-02-14T13:24:27;1.20;;;0.43;;
3847;SDS011;1939;48.720;9.166;2024-02-14T13:26:53;1.17;;;0.80;;
3847;SDS011;1939;48.720;9.166;2024-02-14T13:29:18;2.33;;;0.77;;
3847;SDS011;1939;48.720;9.166;2024-02-14T13:31:44;1.20;;;1.10;;
3847;SDS011;1939;48.720;9.166;2024-02-14T13:34:09;0.70;;;0.47;;
3847;SDS011;1939;48.720;9.166;2024-02-14T13:36:35;0.70;;;0.40;;
3847;SDS011;1939;48.720;9.166;2024-02-14T13:39:00;3.00;;;0.50;;
3847;SDS011;1939;48.720;9.166;2024-02-14T13:41:25;0.77;;;0.50;;
3847;SDS011;1939;48.720;9.166;2024-02-14T13:43:51;1.23;;;0.60;;
3847;SDS011;1939;48.720;9.166;2024-02-14T13:46:16;2.50;;;0.97;;
3847;SDS011;1939;48.720;9.166;2024-02-14T13:48:41;0.73;;;0.40;;
3847;SDS011;1939;48.720;9.166;2024-02-14T13:51:06;1.27;;;0.40;;
3847;SDS011;1939;48.720;9.166;2024-02-14T13:53:33;0.80;;;0.57;;
3847;SDS011;1939;48.720;9.166;2024-02-14T13:55:59;0.80;;;0.40;;
3847;SDS011;1939;48.720;9.166;2024-02-14T13:58:24;1.53;;;0.50;;
3847;SDS011;1939;48.720;9.166;2024-02-14T14:00:49;2.07;;;0.53;;
3847;SDS011;1939;48.720;9.166;2024-02-14T14:03:14;1.27;;;0.50;;
3847;SDS011;1939;48.720;9.166;2024-02-14T14:05:40;1.00;;;0.43;;
3847;SDS011;1939;48.720;9.166;2024-02-14T14:08:05;3.23;;;0.60;;
3847;SDS011;1939;48.720;9.166;2024-02-14T14:10:30;2.97;;;0.60;;
3847;SDS011;1939;48.720;9.166;2024-02-14T14:12:55;1.00;;;0.40;;
3847;SDS011;1939;48.720;9.166;2024-02-14T14:15:21;1.23;;;0.80;;
3847;SDS011;1939;48.720;9.166;2024-02-14T14:17:49;4.40;;;0.60;;
3847;SDS011;1939;48.720;9.166;2024-02-14T14:20:14;0.80;;;0.40;;
3847;SDS011;1939;48.720;9.166;2024-02-14T14:22:39;1.83;;;0.40;;
3847;SDS011;1939;48.720;9.166;2024-02-14T14:25:05;0.70;;;0.50;;
3847;SDS011;1939;48.720;9.166;2024-02-14T14:27:33;1.13;;;1.00;;
3847;SDS011;1939;48.720;9.166;2024-02-14T14:29:58;3.53;;;0.70;;
3847;SDS011;1939;48.720;9.166;2024-02-14T14:32:23;3.20;;;1.20;;
3847;SDS011;1939;48.720;9.166;2024-02-14T14:34:48;3.77;;;0.63;;
3847;SDS011;1939;48.720;9.166;2024-02-14T14:37:14;0.90;;;0.60;;
3847;SDS011;1939;48.720;9.166;2024-02-14T14:39:39;1.03;;;0.60;;
3847;SDS011;1939;48.720;9.166;2024-02-14T14:42:04;1.67;;;0.60;;
3847;SDS011;1939;48.720;9.166;2024-02-14T14:44:29;0.77;;;0.50;;
3847;SDS011;1939;48.720;9.166;2024-02-14T14:46:55;0.90;;;0.73;;
3847;SDS011;1939;48.720;9.166;2024-02-14T14:49:21;1.10;;;0.70;;
3847;SDS011;1939;48.720;9.166;2024-02-14T14:51:46;0.70;;;0.40;;
3847;SDS011;1939;48.720;9.166;2024-02-14T14:54:11;1.37;;;0.40;;
3847;SDS011;1939;48.720;9.166;2024-02-14T14:56:37;0.70;;;0.40;;
3847;SDS011;1939;48.720;9.166;2024-02-14T14:59:02;1.63;;;0.70;;
3847;SDS011;1939;48.720;9.166;2024-02-14T15:01:31;2.00;;;1.10;;
3847;SDS011;1939;48.720;9.166;2024-02-14T15:03:59;2.70;;;0.40;;
3847;SDS011;1939;48.720;9.166;2024-02-14T15:06:24;2.37;;;0.77;;